»·PEaware :: N982YR OSI-L52

N982YR :: OSI-L52

FLIGHT INFORMATION

Flight Status: Arrived
Operator: Privately registered:
United States
More flights under this callsign
Pilot: Anonymous 15639 (15639)
Aircraft: CESSNA 172 SKYHAWK
(C172)
More flights by this aircraft type
Origin: OSI
Destination: L52 Oceano Co
United States
More flights between these airports :: More routes between these airports
Route: +
File this flight plan on PilotEdge
Remarks:
Altitude:
(Current/Filed)
0ft
Speed:
(Current/Filed)
0kts
Departed: 08-Sep-18 11:46 AM
Arrived: 08-Sep-18 01:08 PM
Distance/Time
Traveled:
Not Available
Distance/Time
To Go:
Arrived

Flight Plot

Page will automatically refresh every two minutes.

Flight plan parsing failed; only flown route is shown


Map Options




Map Legend


Flown Route
Filed Route
Departure Airport
Arrival Airport
Navaid (VOR, NDB)
Fix

Horizontal Profiles

Position Reports

Time Latitude Longitude Heading Altitude Ground
Speed
08-Sep-18 11:47 37.294548 -122.058495 138 3096ft 126kts
08-Sep-18 11:48 37.266150 -122.031937 155 3450ft 123kts
08-Sep-18 11:49 37.235182 -122.016760 167 4094ft 108kts
08-Sep-18 11:50 37.207376 -122.008487 175 4601ft 100kts
08-Sep-18 11:51 37.181791 -121.998251 151 5094ft 97kts
08-Sep-18 11:52 37.159281 -121.979777 152 5547ft 95kts
08-Sep-18 11:53 37.136712 -121.962009 154 5972ft 95kts
08-Sep-18 11:54 37.114303 -121.944597 155 6385ft 94kts
08-Sep-18 11:55 37.092167 -121.927531 156 6776ft 93kts
08-Sep-18 11:56 37.070119 -121.910608 156 7148ft 92kts
08-Sep-18 11:57 37.048128 -121.893776 156 7499ft 93kts
08-Sep-18 11:58 37.022693 -121.874572 155 7518ft 115kts
08-Sep-18 11:59 36.994815 -121.853437 155 7518ft 119kts
08-Sep-18 12:00 36.966434 -121.831778 155 7517ft 119kts
08-Sep-18 12:01 36.938320 -121.810352 155 7517ft 118kts
08-Sep-18 12:02 36.910160 -121.788979 155 7518ft 118kts
08-Sep-18 12:03 36.881989 -121.767636 155 7519ft 119kts
08-Sep-18 12:04 36.853624 -121.746167 155 7519ft 119kts
08-Sep-18 12:05 36.825303 -121.724757 155 7485ft 120kts
08-Sep-18 12:06 36.796906 -121.703300 155 7473ft 118kts
08-Sep-18 12:07 36.768667 -121.681987 155 7473ft 118kts
08-Sep-18 12:08 36.740507 -121.660766 154 7465ft 118kts
08-Sep-18 12:09 36.712207 -121.639437 154 7464ft 119kts
08-Sep-18 12:10 36.683535 -121.617855 154 7464ft 121kts
08-Sep-18 12:11 36.655208 -121.594382 145 7464ft 124kts
08-Sep-18 12:12 36.628109 -121.567280 145 7464ft 125kts
08-Sep-18 12:13 36.600855 -121.540036 145 7464ft 126kts
08-Sep-18 12:14 36.573521 -121.512741 145 7464ft 126kts
08-Sep-18 12:15 36.546274 -121.485558 145 7464ft 126kts
08-Sep-18 12:16 36.518951 -121.458326 145 7464ft 126kts
08-Sep-18 12:17 36.491645 -121.431136 145 7464ft 126kts
08-Sep-18 12:18 36.464224 -121.403856 145 7465ft 126kts
08-Sep-18 12:19 36.436917 -121.376715 145 7465ft 126kts
08-Sep-18 12:20 36.409530 -121.349521 146 7464ft 126kts
08-Sep-18 12:21 36.382218 -121.322423 146 7462ft 125kts
08-Sep-18 12:22 36.355001 -121.295449 146 7462ft 125kts
08-Sep-18 12:23 36.328040 -121.268735 146 7535ft 120kts
08-Sep-18 12:24 36.301279 -121.242283 145 7545ft 124kts
08-Sep-18 12:25 36.274271 -121.215581 145 7545ft 124kts
08-Sep-18 12:26 36.247207 -121.188855 144 7545ft 124kts
08-Sep-18 12:27 36.220027 -121.162041 144 7545ft 125kts
08-Sep-18 12:28 36.192839 -121.135238 144 7545ft 125kts
08-Sep-18 12:29 36.165606 -121.108417 144 7545ft 125kts
08-Sep-18 12:30 36.138357 -121.081614 144 7503ft 126kts
08-Sep-18 12:31 36.111114 -121.054826 144 7499ft 124kts
08-Sep-18 12:32 36.084192 -121.028384 144 7500ft 124kts
08-Sep-18 12:33 36.057141 -121.001840 144 7500ft 124kts
08-Sep-18 12:34 36.030246 -120.975473 144 7500ft 124kts
08-Sep-18 12:35 36.003244 -120.949025 144 7500ft 124kts
08-Sep-18 12:36 35.976193 -120.922551 144 7500ft 124kts
08-Sep-18 12:37 35.949199 -120.896158 144 7500ft 124kts
08-Sep-18 12:38 35.922174 -120.869759 144 7500ft 124kts
08-Sep-18 12:39 35.895179 -120.843412 144 7500ft 124kts
08-Sep-18 12:40 35.868188 -120.817095 144 7500ft 124kts
08-Sep-18 12:41 35.842513 -120.789175 109 7499ft 126kts
08-Sep-18 12:42 35.838329 -120.746492 120 7497ft 125kts
08-Sep-18 12:43 35.817894 -120.711618 129 7500ft 125kts
08-Sep-18 12:44 35.796559 -120.677593 138 7497ft 125kts
08-Sep-18 12:45 35.765311 -120.662444 166 7520ft 119kts
08-Sep-18 12:46 35.733494 -120.650228 167 7537ft 120kts
08-Sep-18 12:47 35.701433 -120.638001 167 7537ft 121kts
08-Sep-18 12:48 35.669143 -120.629100 195 7536ft 116kts
08-Sep-18 12:49 35.637890 -120.638203 198 7537ft 115kts
08-Sep-18 12:50 35.606832 -120.647829 198 7537ft 115kts
08-Sep-18 12:51 35.575710 -120.657639 199 7537ft 115kts
08-Sep-18 12:52 35.544623 -120.667485 198 7537ft 115kts
08-Sep-18 12:53 35.513549 -120.677299 198 7537ft 115kts
08-Sep-18 12:54 35.482498 -120.687096 198 7537ft 115kts
08-Sep-18 12:55 35.451420 -120.696893 198 7537ft 115kts
08-Sep-18 12:56 35.419825 -120.706844 200 7491ft 117kts
08-Sep-18 12:57 35.388217 -120.716795 200 7491ft 117kts
08-Sep-18 12:58 35.356480 -120.726819 200 7278ft 118kts
08-Sep-18 12:59 35.324523 -120.736894 200 6684ft 119kts
08-Sep-18 13:00 35.292429 -120.746973 200 6089ft 119kts
08-Sep-18 13:01 35.260109 -120.757115 200 5496ft 121kts
08-Sep-18 13:02 35.228693 -120.737837 146 4900ft 133kts
08-Sep-18 13:03 35.198888 -120.710884 145 4241ft 131kts
08-Sep-18 13:04 35.169152 -120.685261 156 3357ft 131kts
08-Sep-18 13:05 35.134594 -120.673038 169 2413ft 131kts
08-Sep-18 13:06 35.099905 -120.659798 163 1533ft 132kts
08-Sep-18 13:07 35.083529 -120.624078 125 996ft 108kts
08-Sep-18 13:08 35.083763 -120.603634 343 706ft 54kts
08-Sep-18 13:09 35.095754 -120.611521 308 298ft 52kts
08-Sep-18 13:10 35.100911 -120.621165 303 18ft 12kts
08-Sep-18 13:11 35.102298 -120.622360 303 18ft 4kts
08-Sep-18 13:12 35.102833 -120.623588 213 18ft 1kts

Navigation Log

Ident Type
Flight plan parsing failed, navigation log unavailable